Time;durP1;ratioP1;P1;durP2;ratioP2;P2;SDS_P1;SDS_P2;PMS_P1;PMS_P2;Temp;Humidity;BMP_temperature;BMP_pressure;BME280_temperature;BME280_humidity;BME280_pressure;Samples;Min_cycle;Max_cycle;Signal;HPM_P1;HPM_P2
2022/03/06 00:01:54;;;;;;;11.37;8.30;;;;;;;-1.63;100.00;96636.25;4994749;28;20492;-73
2022/03/06 00:04:21;;;;;;;11.17;10.23;;;;;;;-0.87;100.00;96746.09;5010270;28;20450;-73
2022/03/06 00:06:47;;;;;;;11.80;8.83;;;;;;;-1.08;100.00;96715.75;5010241;28;20452;-73
2022/03/06 00:09:14;;;;;;;14.90;9.03;;;;;;;-1.13;100.00;96713.88;4995299;28;20465;-73
2022/03/06 00:11:41;;;;;;;10.23;8.40;;;;;;;-1.05;100.00;96726.44;4990428;28;20571;-73
2022/03/06 00:14:08;;;;;;;14.17;9.80;;;;;;;-0.95;100.00;96742.09;4993284;28;20475;-73
2022/03/06 00:16:35;;;;;;;9.30;8.43;;;;;;;-1.16;100.00;96708.41;4993690;28;20442;-73
2022/03/06 00:19:02;;;;;;;13.40;8.83;;;;;;;-1.03;100.00;96724.38;4994823;28;20515;-74
2022/03/06 00:21:30;;;;;;;11.10;8.40;;;;;;;-1.11;100.00;96711.81;4993205;28;20591;-74
2022/03/06 00:23:57;;;;;;;11.27;8.70;;;;;;;-1.17;100.00;96709.44;4993923;28;21000;-73
2022/03/06 00:26:24;;;;;;;11.37;9.27;;;;;;;-0.94;100.00;96740.28;4995167;28;20489;-73
2022/03/06 00:28:51;;;;;;;10.70;8.77;;;;;;;-1.20;100.00;96711.47;5008955;28;20449;-73
2022/03/06 00:31:18;;;;;;;12.10;8.73;;;;;;;-1.11;100.00;96726.59;5008926;28;20525;-73
2022/03/06 00:33:45;;;;;;;11.17;8.63;;;;;;;-1.23;100.00;96714.53;5009523;28;20998;-73
2022/03/06 00:36:12;;;;;;;10.50;9.50;;;;;;;-1.30;100.00;96703.56;5009776;28;20426;-73
2022/03/06 00:38:38;;;;;;;13.40;8.60;;;;;;;-1.08;100.00;96741.69;4977773;28;21008;-73
2022/03/06 00:41:05;;;;;;;9.90;8.23;;;;;;;-1.18;100.00;96726.03;4994831;28;20440;-72
2022/03/06 00:43:32;;;;;;;11.60;8.33;;;;;;;-1.08;100.00;96739.88;4995092;28;20453;-73
2022/03/06 00:45:59;;;;;;;15.83;10.20;;;;;;;-1.30;100.00;96719.13;5009462;28;20434;-72
2022/03/06 00:48:26;;;;;;;10.00;8.00;;;;;;;-1.13;100.00;96739.03;4994364;28;20426;-73
2022/03/06 00:50:53;;;;;;;10.10;9.20;;;;;;;-1.22;100.00;96723.88;4993708;28;20424;-73
2022/03/06 00:53:20;;;;;;;13.27;9.60;;;;;;;-1.20;100.00;96737.41;4992213;28;20507;-73
2022/03/06 00:55:47;;;;;;;13.27;10.20;;;;;;;-1.21;100.00;96735.03;5008973;28;20433;-72
2022/03/06 00:58:14;;;;;;;14.10;9.63;;;;;;;-1.28;100.00;96744.81;5009379;28;20869;-73
2022/03/06 01:00:47;;;;;;;11.23;9.27;;;;;;;-1.28;100.00;96737.81;4992754;28;20477;-72
2022/03/06 01:03:17;;;;;;;9.77;8.77;;;;;;;-1.31;100.00;96735.72;4993047;28;20469;-72
2022/03/06 01:05:45;;;;;;;11.70;9.27;;;;;;;-1.42;100.00;96733.22;4993905;28;20460;-71
2022/03/06 01:08:12;;;;;;;11.90;10.77;;;;;;;-1.44;100.00;96749.03;4993615;28;20455;-71
2022/03/06 01:10:42;;;;;;;12.40;9.53;;;;;;;-1.56;100.00;96738.75;4994861;28;20484;-71
2022/03/06 01:13:09;;;;;;;12.33;9.53;;;;;;;-1.58;100.00;96737.44;5009749;28;20540;-71
2022/03/06 01:15:37;;;;;;;11.57;10.07;;;;;;;-1.61;100.00;96725.72;5009289;28;20812;-72
2022/03/06 01:18:06;;;;;;;15.03;10.67;;;;;;;-1.49;100.00;96747.13;5008865;28;20425;-71
2022/03/06 01:20:33;;;;;;;13.50;9.87;;;;;;;-1.63;100.00;96730.34;4993156;28;21027;-71
2022/03/06 01:23:00;;;;;;;16.57;9.50;;;;;;;-1.54;100.00;96728.16;4991961;28;20440;-72
2022/03/06 01:25:27;;;;;;;12.87;10.73;;;;;;;-1.65;100.00;96722.03;4992226;28;20467;-72
2022/03/06 01:27:54;;;;;;;12.50;8.83;;;;;;;-1.55;100.00;96742.13;4978009;28;20456;-72
2022/03/06 01:30:22;;;;;;;10.83;9.33;;;;;;;-1.66;100.00;96723.06;5008695;28;20540;-72
2022/03/06 01:32:49;;;;;;;10.37;8.53;;;;;;;-1.65;100.00;96735.00;5008691;28;20455;-72
2022/03/06 01:35:16;;;;;;;11.97;9.13;;;;;;;-1.67;100.00;96726.69;5010969;28;20496;-72
2022/03/06 01:37:43;;;;;;;11.60;10.27;;;;;;;-1.58;100.00;96751.19;4992776;28;20441;-72
2022/03/06 01:40:12;;;;;;;10.13;8.80;;;;;;;-1.67;100.00;96736.25;4993511;28;20433;-73
2022/03/06 01:42:40;;;;;;;10.63;9.07;;;;;;;-1.55;100.00;96755.88;4977174;28;20960;-72
2022/03/06 01:45:08;;;;;;;10.53;9.33;;;;;;;-1.65;100.00;96747.94;4992108;28;20894;-72
2022/03/06 01:47:41;;;;;;;13.20;10.50;;;;;;;-1.69;100.00;96749.47;4993252;28;21004;-72
2022/03/06 01:50:13;;;;;;;15.07;10.43;;;;;;;-1.80;100.00;96745.94;4993017;28;20452;-71
2022/03/06 01:52:40;;;;;;;14.43;8.20;;;;;;;-1.82;100.00;96731.63;5007904;28;20452;-70
2022/03/06 01:55:08;;;;;;;12.73;10.10;;;;;;;-1.74;100.00;96762.31;5008060;28;20547;-71
2022/03/06 01:57:35;;;;;;;14.10;9.17;;;;;;;-1.90;100.00;96748.34;4992795;28;20846;-71
2022/03/06 02:00:05;;;;;;;12.57;9.40;;;;;;;-1.83;100.00;96754.19;5007727;28;20434;-71
2022/03/06 02:02:37;;;;;;;17.30;11.20;;;;;;;-1.96;100.00;96738.94;4991871;28;20476;-71
2022/03/06 02:05:05;;;;;;;15.47;10.23;;;;;;;-1.79;100.00;96762.25;5007303;28;20467;-71
2022/03/06 02:07:32;;;;;;;18.57;11.60;;;;;;;-1.79;100.00;96762.25;4993523;28;20432;-71
2022/03/06 02:10:00;;;;;;;13.50;9.90;;;;;;;-1.82;100.00;96760.94;5008090;28;20515;-72
2022/03/06 02:12:27;;;;;;;13.47;10.07;;;;;;;-2.05;100.00;96730.00;4996709;28;20914;-71
2022/03/06 02:14:57;;;;;;;11.70;9.97;;;;;;;-1.95;100.00;96761.25;5011103;28;20472;-71
2022/03/06 02:17:25;;;;;;;10.67;9.53;;;;;;;-2.02;100.00;96744.28;5011948;28;20432;-71
2022/03/06 02:20:00;;;;;;;10.80;9.20;;;;;;;-1.91;100.00;96758.97;4994935;28;20469;-71
2022/03/06 02:22:29;;;;;;;11.40;8.67;;;;;;;-2.03;100.00;96743.50;4994927;28;20444;-72
2022/03/06 02:24:58;;;;;;;11.70;10.27;;;;;;;-1.97;100.00;96750.34;5012990;28;20444;-72
2022/03/06 02:27:26;;;;;;;12.57;10.97;;;;;;;-1.97;100.00;96763.28;4995893;28;20452;-73
2022/03/06 02:29:53;;;;;;;12.83;9.33;;;;;;;-2.14;100.00;96731.41;5011697;28;20521;-73
2022/03/06 02:32:21;;;;;;;14.53;9.73;;;;;;;-1.98;100.00;96763.53;4994821;28;20539;-72
2022/03/06 02:34:50;;;;;;;11.93;9.20;;;;;;;-2.20;100.00;96733.13;4995497;28;20496;-73
2022/03/06 02:37:21;;;;;;;9.67;8.37;;;;;;;-2.03;100.00;96764.22;4995810;28;20478;-72
2022/03/06 02:39:48;;;;;;;11.57;9.97;;;;;;;-2.08;100.00;96758.97;4994492;28;20444;-73
2022/03/06 02:42:32;;;;;;;9.53;8.50;;;;;;;-2.09;100.00;96758.19;4994180;28;20531;-73
2022/03/06 02:45:01;;;;;;;14.40;8.73;;;;;;;-2.08;100.00;96743.41;4994448;28;20496;-73
2022/03/06 02:47:27;;;;;;;12.27;8.70;;;;;;;-2.16;100.00;96759.34;4994431;28;20465;-73
2022/03/06 02:49:54;;;;;;;12.10;9.27;;;;;;;-2.37;100.00;96721.97;5010406;28;20484;-73
2022/03/06 02:52:21;;;;;;;12.37;10.60;;;;;;;-2.42;100.00;96717.50;5010349;28;20487;-72
2022/03/06 02:54:48;;;;;;;12.67;9.30;;;;;;;-2.25;100.00;96750.41;4982141;28;20500;-72
2022/03/06 02:57:15;;;;;;;14.60;11.50;;;;;;;-2.25;100.00;96755.59;4993910;28;20449;-72
2022/03/06 02:59:41;;;;;;;10.80;9.70;;;;;;;-2.38;100.00;96746.31;4993781;28;20892;-72
2022/03/06 03:02:08;;;;;;;15.87;9.90;;;;;;;-2.32;100.00;96744.56;4995065;28;20457;-72
2022/03/06 03:04:38;;;;;;;12.53;10.93;;;;;;;-2.37;100.00;96755.63;5010206;28;20459;-72
2022/03/06 03:07:07;;;;;;;13.93;10.10;;;;;;;-2.51;100.00;96731.84;5010218;28;20475;-72
2022/03/06 03:09:34;;;;;;;13.73;9.70;;;;;;;-2.61;100.00;96710.97;5009959;28;20441;-72
2022/03/06 03:12:02;;;;;;;12.57;10.97;;;;;;;-2.29;100.00;96757.03;5009982;28;20494;-72
2022/03/06 03:14:32;;;;;;;16.70;11.30;;;;;;;-2.35;100.00;96755.41;4993615;28;20469;-72
2022/03/06 03:16:59;;;;;;;9.83;8.57;;;;;;;-2.33;100.00;96755.94;4994687;28;20461;-73
2022/03/06 03:19:26;;;;;;;13.63;11.00;;;;;;;-2.34;100.00;96754.38;5009704;28;20467;-73
2022/03/06 03:21:55;;;;;;;13.63;9.80;;;;;;;-2.45;100.00;96725.72;4992908;28;20949;-73
2022/03/06 03:24:23;;;;;;;11.00;9.90;;;;;;;-2.27;100.00;96755.81;4993447;28;20458;-73
2022/03/06 03:26:50;;;;;;;15.47;9.63;;;;;;;-2.50;100.00;96740.41;5009656;28;20446;-73
2022/03/06 03:29:18;;;;;;;14.43;9.83;;;;;;;-2.62;100.00;96735.28;5009628;28;20464;-73
2022/03/06 03:31:45;;;;;;;11.43;9.00;;;;;;;-2.58;100.00;96751.09;5009677;28;20591;-73
2022/03/06 03:34:12;;;;;;;12.80;9.33;;;;;;;-2.68;100.00;96733.59;4994457;28;20500;-72
2022/03/06 03:36:39;;;;;;;11.67;9.23;;;;;;;-2.70;100.00;96740.81;4994453;28;20523;-73
2022/03/06 03:39:06;;;;;;;12.33;9.37;;;;;;;-2.69;100.00;96752.72;4997963;28;20950;-73
2022/03/06 03:41:33;;;;;;;12.93;10.67;;;;;;;-2.87;100.00;96734.81;4988525;28;20488;-73
2022/03/06 03:44:00;;;;;;;12.27;10.77;;;;;;;-2.81;100.00;96737.25;4989717;28;20508;-73
2022/03/06 03:46:27;;;;;;;15.83;11.17;;;;;;;-2.71;100.00;96747.00;4976573;28;20440;-73
2022/03/06 03:48:54;;;;;;;15.70;9.50;;;;;;;-2.68;100.00;96746.53;5009306;28;20440;-72
2022/03/06 03:51:20;;;;;;;12.37;10.10;;;;;;;-2.83;100.00;96733.31;5009164;28;20468;-72
2022/03/06 03:53:47;;;;;;;10.30;9.10;;;;;;;-2.81;100.00;96749.38;4992694;28;20460;-72
2022/03/06 03:56:14;;;;;;;12.50;7.97;;;;;;;-2.69;100.00;96756.09;5009158;28;20862;-72
2022/03/06 03:58:40;;;;;;;10.33;8.77;;;;;;;-2.46;100.00;96751.84;4992716;28;20468;-72
2022/03/06 04:01:07;;;;;;;13.30;8.97;;;;;;;-2.41;100.00;96759.69;4993917;28;20429;-72
2022/03/06 04:03:34;;;;;;;15.20;9.27;;;;;;;-2.57;100.00;96731.97;5008942;28;20539;-73
2022/03/06 04:06:00;;;;;;;10.83;9.57;;;;;;;-2.53;100.00;96746.81;4992594;28;20997;-73
2022/03/06 04:08:27;;;;;;;10.47;8.70;;;;;;;-2.59;100.00;96752.91;5008733;28;21010;-73
2022/03/06 04:10:56;;;;;;;12.10;10.90;;;;;;;-2.52;100.00;96769.09;5008859;28;20540;-73
2022/03/06 04:13:23;;;;;;;12.57;10.33;;;;;;;-2.63;100.00;96740.69;4992616;28;20484;-73
2022/03/06 04:15:50;;;;;;;12.07;10.30;;;;;;;-2.75;100.00;96730.38;4993681;28;21239;-73
2022/03/06 04:18:17;;;;;;;20.83;11.20;;;;;;;-2.85;100.00;96733.56;5008749;28;20443;-74
2022/03/06 04:20:44;;;;;;;13.97;10.93;;;;;;;-2.45;100.00;96764.56;4993636;28;20427;-74
2022/03/06 04:23:11;;;;;;;13.60;10.10;;;;;;;-2.31;100.00;96772.03;4993645;28;20507;-73
2022/03/06 04:25:38;;;;;;;14.73;10.47;;;;;;;-2.55;100.00;96733.31;4992326;28;20472;-73
2022/03/06 04:28:05;;;;;;;13.00;9.70;;;;;;;-2.34;100.00;96778.47;4992226;28;20437;-74
2022/03/06 04:30:32;;;;;;;13.23;9.87;;;;;;;-2.46;100.00;96757.03;5008475;28;20854;-73
2022/03/06 04:33:02;;;;;;;13.87;9.13;;;;;;;-2.37;100.00;96778.94;4993454;28;20524;-73
2022/03/06 04:35:29;;;;;;;13.43;9.80;;;;;;;-2.34;100.00;96773.28;4993347;28;20808;-74
2022/03/06 04:37:57;;;;;;;10.50;9.27;;;;;;;-2.34;100.00;96781.06;4994175;28;20480;-74
2022/03/06 04:40:24;;;;;;;13.77;10.90;;;;;;;-2.31;100.00;96782.38;5008577;28;20469;-73
2022/03/06 04:42:51;;;;;;;13.03;10.03;;;;;;;-2.26;100.00;96779.91;4992262;28;20520;-73
2022/03/06 04:45:17;;;;;;;13.63;9.90;;;;;;;-2.43;100.00;96759.91;5008275;28;20608;-74
2022/03/06 04:47:44;;;;;;;11.23;9.67;;;;;;;-2.33;100.00;96769.69;4991851;28;20475;-73
2022/03/06 04:50:11;;;;;;;10.63;8.50;;;;;;;-2.09;100.00;96786.66;4991895;28;20495;-74
2022/03/06 04:52:38;;;;;;;10.07;8.60;;;;;;;-2.38;100.00;96752.25;5008543;28;21087;-74
2022/03/06 04:55:05;;;;;;;15.53;9.30;;;;;;;-2.15;100.00;96785.00;4992937;28;20501;-73
2022/03/06 04:57:32;;;;;;;12.53;9.10;;;;;;;-2.41;100.00;96751.91;4991509;28;20441;-73
2022/03/06 04:59:59;;;;;;;14.57;9.80;;;;;;;-2.43;100.00;96754.75;5007991;28;20435;-73
2022/03/06 05:02:26;;;;;;;11.57;9.60;;;;;;;-2.21;100.00;96785.16;4991673;28;20485;-74
2022/03/06 05:04:53;;;;;;;12.70;8.80;;;;;;;-2.14;100.00;96772.84;4975517;28;20464;-73
2022/03/06 05:07:19;;;;;;;12.90;10.43;;;;;;;-2.06;100.00;96785.41;4992938;28;20456;-73
2022/03/06 05:09:46;;;;;;;15.80;10.93;;;;;;;-2.17;100.00;96768.91;5008156;28;20528;-73
2022/03/06 05:12:13;;;;;;;13.53;9.13;;;;;;;-2.28;100.00;96759.41;4991559;28;20442;-73
2022/03/06 05:14:39;;;;;;;15.30;11.17;;;;;;;-2.04;100.00;96793.72;5007555;28;20480;-73
2022/03/06 05:17:06;;;;;;;11.83;10.43;;;;;;;-2.06;100.00;96800.94;4992653;28;20999;-74
2022/03/06 05:19:33;;;;;;;15.00;11.50;;;;;;;-2.09;100.00;96788.47;4991423;28;20520;-74
2022/03/06 05:21:59;;;;;;;18.73;9.50;;;;;;;-2.30;100.00;96758.84;4993534;28;20524;-74
2022/03/06 05:24:26;;;;;;;11.70;10.30;;;;;;;-1.99;100.00;96795.63;5007647;28;20540;-73
2022/03/06 05:26:52;;;;;;;12.13;9.80;;;;;;;-2.13;100.00;96774.44;5007680;28;20525;-73
2022/03/06 05:29:19;;;;;;;12.87;10.93;;;;;;;-2.30;100.00;96742.53;4975155;28;21000;-73
2022/03/06 05:31:46;;;;;;;13.30;8.43;;;;;;;-2.11;100.00;96768.00;5007360;28;20448;-73
2022/03/06 05:34:12;;;;;;;13.13;10.07;;;;;;;-1.93;100.00;96795.47;5007252;28;21111;-73
2022/03/06 05:36:39;;;;;;;13.53;11.30;;;;;;;-2.09;100.00;96770.34;4992428;28;20490;-73
2022/03/06 05:39:06;;;;;;;18.80;10.20;;;;;;;-2.09;100.00;96771.13;5007330;28;20437;-74
2022/03/06 05:41:32;;;;;;;14.17;9.00;;;;;;;-2.02;100.00;96772.78;4991019;28;20549;-74
2022/03/06 05:43:59;;;;;;;16.63;9.63;;;;;;;-2.17;100.00;96765.53;4975137;28;20500;-74
2022/03/06 05:46:26;;;;;;;13.13;9.27;;;;;;;-2.10;100.00;96773.97;5010223;28;20486;-74
2022/03/06 05:48:52;;;;;;;13.27;10.53;;;;;;;-2.05;100.00;96783.59;4996535;28;20421;-74
2022/03/06 05:51:19;;;;;;;14.67;10.33;;;;;;;-2.08;100.00;96777.09;4996489;28;20438;-73
2022/03/06 05:53:46;;;;;;;14.23;9.70;;;;;;;-2.23;100.00;96758.72;4996318;28;20450;-73
2022/03/06 05:56:13;;;;;;;12.33;9.47;;;;;;;-1.92;100.00;96798.84;4976409;28;20497;-74
2022/03/06 05:58:39;;;;;;;17.03;9.83;;;;;;;-2.12;100.00;96771.59;4987584;28;20524;-74
2022/03/06 06:01:06;;;;;;;11.77;9.33;;;;;;;-2.09;100.00;96791.84;4996234;28;20476;-73
2022/03/06 06:03:33;;;;;;;13.67;11.10;;;;;;;-2.03;100.00;96797.88;4982424;28;20477;-73
2022/03/06 06:05:59;;;;;;;12.57;9.37;;;;;;;-2.10;100.00;96782.50;4994236;28;20481;-73
2022/03/06 06:08:26;;;;;;;9.80;8.80;;;;;;;-1.96;100.00;96810.72;4994971;28;20480;-73
2022/03/06 06:10:53;;;;;;;12.07;9.20;;;;;;;-2.10;100.00;96782.50;5011058;28;20954;-74
2022/03/06 06:13:19;;;;;;;12.37;8.90;;;;;;;-1.77;100.00;96808.66;5010747;28;20460;-74
2022/03/06 06:15:46;;;;;;;16.97;9.73;;;;;;;-1.78;100.00;96810.47;4995795;28;21047;-74
2022/03/06 06:18:13;;;;;;;15.37;9.53;;;;;;;-1.94;100.00;96795.72;5010767;28;20470;-74
2022/03/06 06:20:40;;;;;;;12.60;10.33;;;;;;;-1.81;100.00;96806.53;5011016;28;21028;-74
2022/03/06 06:23:06;;;;;;;15.97;10.47;;;;;;;-1.64;100.00;96785.03;4995694;28;21006;-74
2022/03/06 06:25:33;;;;;;;12.40;9.40;;;;;;;-1.61;100.00;96815.66;5010921;28;20877;-74
2022/03/06 06:28:00;;;;;;;14.40;11.07;;;;;;;-1.81;100.00;96792.81;4994489;28;20482;-74
2022/03/06 06:30:27;;;;;;;17.90;12.43;;;;;;;-1.59;100.00;96806.63;5010594;28;20433;-74
2022/03/06 06:32:54;;;;;;;14.43;11.20;;;;;;;-1.66;100.00;96815.56;4978185;28;20456;-74
2022/03/06 06:35:21;;;;;;;15.20;10.13;;;;;;;-1.80;100.00;96797.75;5010598;28;20519;-74
2022/03/06 06:37:49;;;;;;;12.10;10.13;;;;;;;-1.86;100.00;96795.34;5010234;28;20500;-74
2022/03/06 06:40:15;;;;;;;13.53;10.07;;;;;;;-1.77;100.00;96803.47;4995546;28;20433;-74
2022/03/06 06:42:42;;;;;;;10.63;9.40;;;;;;;-1.54;100.00;96805.91;4994130;28;20445;-74
2022/03/06 06:45:09;;;;;;;12.13;9.80;;;;;;;-1.61;100.00;96787.13;5010413;28;20458;-74
2022/03/06 06:47:36;;;;;;;13.03;8.97;;;;;;;-1.46;100.00;96799.56;4995263;28;20491;-74
2022/03/06 06:50:03;;;;;;;11.70;9.73;;;;;;;-1.37;100.00;96818.84;4993897;28;20999;-74
2022/03/06 06:52:30;;;;;;;14.27;11.50;;;;;;;-1.77;100.00;96777.56;4994200;28;20450;-74
2022/03/06 06:54:57;;;;;;;18.77;11.93;;;;;;;-1.68;100.00;96791.72;4994046;28;20555;-74
2022/03/06 06:57:24;;;;;;;16.20;11.97;;;;;;;-1.55;100.00;96787.00;4993972;28;20465;-74
2022/03/06 06:59:50;;;;;;;14.53;12.53;;;;;;;-1.43;100.00;96820.59;5010138;28;20559;-74
2022/03/06 07:02:17;;;;;;;20.77;14.77;;;;;;;-1.86;100.00;96788.34;5010194;28;20452;-74
2022/03/06 07:04:44;;;;;;;17.80;12.70;;;;;;;-1.51;100.00;96824.38;4993646;28;20465;-74
2022/03/06 07:07:11;;;;;;;15.33;13.77;;;;;;;-1.65;100.00;96807.56;5009835;28;20941;-74
2022/03/06 07:09:38;;;;;;;17.27;14.47;;;;;;;-1.33;100.00;96830.34;5009926;28;20441;-74
2022/03/06 07:12:06;;;;;;;19.23;12.97;;;;;;;-1.10;100.00;96834.53;4994823;28;20433;-74
2022/03/06 07:14:33;;;;;;;15.40;13.00;;;;;;;-1.00;100.00;96835.47;4994877;28;20996;-74
2022/03/06 07:17:00;;;;;;;17.77;12.00;;;;;;;-1.39;100.00;96794.97;4994679;28;20460;-73
2022/03/06 07:19:26;;;;;;;17.33;13.30;;;;;;;-1.17;100.00;96833.94;5009650;28;20491;-73
2022/03/06 07:21:53;;;;;;;21.70;13.53;;;;;;;-1.29;100.00;96832.22;4993423;28;20531;-73
2022/03/06 07:24:20;;;;;;;13.80;12.00;;;;;;;-1.27;100.00;96812.00;4993306;28;21009;-73
2022/03/06 07:26:46;;;;;;;14.67;11.90;;;;;;;-1.02;100.00;96847.91;4994554;28;20522;-73
2022/03/06 07:29:13;;;;;;;14.70;11.50;;;;;;;-0.99;100.00;96837.03;4986288;28;20500;-73
2022/03/06 07:31:40;;;;;;;18.03;13.10;;;;;;;-0.85;100.00;96841.88;5006727;28;20531;-73
2022/03/06 07:34:06;;;;;;;15.33;11.10;;;;;;;-1.06;100.00;96825.28;4994388;28;20528;-73
2022/03/06 07:36:33;;;;;;;12.43;9.30;;;;;;;-0.87;100.00;96818.75;4993006;28;21017;-73
2022/03/06 07:39:00;;;;;;;11.50;10.20;;;;;;;-0.79;100.00;96848.72;4994414;28;20451;-73
2022/03/06 07:41:27;;;;;;;15.10;10.90;;;;;;;-0.81;100.00;96851.53;5009269;28;20503;-73
2022/03/06 07:43:53;;;;;;;11.07;9.23;;;;;;;-0.93;100.00;96822.34;5009384;28;20465;-73
2022/03/06 07:46:20;;;;;;;9.33;8.40;;;;;;;-0.97;100.00;96808.25;5009286;28;20453;-73
2022/03/06 07:48:47;;;;;;;10.47;9.47;;;;;;;-0.54;100.00;96856.78;4993231;28;20854;-73
2022/03/06 07:51:14;;;;;;;11.10;9.90;;;;;;;-0.54;100.00;96853.41;4977194;28;20775;-72
2022/03/06 07:53:40;;;;;;;15.37;9.60;;;;;;;-0.52;100.00;96846.19;4977155;28;20501;-72
2022/03/06 07:56:07;;;;;;;12.53;10.10;;;;;;;-0.64;100.00;96849.69;4976574;28;20556;-72
2022/03/06 07:58:34;;;;;;;16.03;10.57;;;;;;;-0.63;100.00;96863.44;5009000;28;20858;-72
2022/03/06 08:01:00;;;;;;;11.60;10.40;;;;;;;-0.79;100.00;96833.16;4993945;28;20425;-72
2022/03/06 08:03:27;;;;;;;9.40;8.47;;;;;;;-0.56;100.00;96856.25;4992522;28;20548;-72
2022/03/06 08:05:54;;;;;;;15.20;8.67;;;;;;;-0.52;100.00;96852.16;4993752;28;20541;-72
2022/03/06 08:08:22;;;;;;;10.80;9.70;;;;;;;-0.52;100.00;96828.78;4992229;28;20516;-72
2022/03/06 08:10:48;;;;;;;10.10;9.10;;;;;;;-0.65;100.00;96839.53;5008696;28;20533;-72
2022/03/06 08:13:15;;;;;;;14.13;9.17;;;;;;;-0.41;100.00;96859.03;4993763;28;20493;-72
2022/03/06 08:15:42;;;;;;;10.63;8.37;;;;;;;-0.35;100.00;96858.06;5008518;28;20560;-73
2022/03/06 08:18:08;;;;;;;10.10;9.17;;;;;;;-0.31;100.00;96868.75;5008683;28;20479;-73
2022/03/06 08:20:35;;;;;;;13.57;8.77;;;;;;;-0.18;100.00;96863.19;4993517;28;20536;-73
2022/03/06 08:23:02;;;;;;;11.57;8.93;;;;;;;-0.45;100.00;96842.38;4992248;28;20473;-73
2022/03/06 08:25:29;;;;;;;9.43;8.53;;;;;;;-0.02;100.00;96870.09;5008509;28;20437;-71
2022/03/06 08:27:55;;;;;;;8.60;7.77;;;;;;;0.08;100.00;96866.03;4992485;28;20477;-72
2022/03/06 08:30:22;;;;;;;14.37;9.03;;;;;;;0.07;100.00;96862.66;4993226;28;21011;-72
2022/03/06 08:32:49;;;;;;;14.20;9.47;;;;;;;-0.34;100.00;96864.03;5008093;28;20452;-73
2022/03/06 08:35:16;;;;;;;12.40;8.17;;;;;;;-0.47;100.00;96839.22;4991985;28;20440;-73
2022/03/06 08:37:42;;;;;;;10.53;7.87;;;;;;;-0.22;100.00;96854.31;4993307;28;20436;-73
2022/03/06 08:40:09;;;;;;;10.37;7.97;;;;;;;-0.27;100.00;96849.03;4975812;28;20477;-73
2022/03/06 08:42:36;;;;;;;9.40;7.93;;;;;;;-0.01;100.00;96863.88;5008014;28;20871;-73
2022/03/06 08:45:04;;;;;;;11.57;7.70;;;;;;;-0.04;100.00;96866.97;4991611;28;20456;-73
2022/03/06 08:47:31;;;;;;;10.00;6.90;;;;;;;0.22;100.00;96867.22;4993055;28;20841;-73
2022/03/06 08:49:57;;;;;;;9.73;7.37;;;;;;;0.21;100.00;96842.25;4993065;28;20498;-73
2022/03/06 08:52:24;;;;;;;8.53;7.03;;;;;;;-0.04;100.00;96791.59;4991729;28;20442;-73
2022/03/06 08:54:51;;;;;;;11.10;7.23;;;;;;;0.35;97.79;96863.41;4991733;28;20512;-73
2022/03/06 08:57:17;;;;;;;12.00;7.13;;;;;;;0.20;97.99;96832.88;5007890;28;20987;-73
2022/03/06 08:59:44;;;;;;;7.50;6.77;;;;;;;0.24;97.00;96845.13;5008142;28;20443;-73
2022/03/06 09:02:11;;;;;;;7.43;6.50;;;;;;;0.32;95.59;96851.72;5007930;28;20437;-73
2022/03/06 09:04:38;;;;;;;6.70;5.73;;;;;;;0.24;92.15;96833.94;4992785;28;20476;-73
2022/03/06 09:07:04;;;;;;;8.40;6.10;;;;;;;0.50;92.33;96864.31;4994759;28;20490;-73
2022/03/06 09:09:31;;;;;;;7.57;6.60;;;;;;;0.42;87.14;96841.41;4991524;28;20483;-73
2022/03/06 09:11:58;;;;;;;7.30;6.60;;;;;;;0.40;86.40;96860.84;5007526;28;20441;-73
2022/03/06 09:14:25;;;;;;;8.83;7.37;;;;;;;0.23;87.73;96871.38;4991326;28;20495;-73
2022/03/06 09:16:52;;;;;;;7.13;6.40;;;;;;;-0.20;88.69;96805.47;4991467;28;20495;-73
2022/03/06 09:19:18;;;;;;;6.50;5.57;;;;;;;0.37;87.54;96863.94;5007621;28;20479;-73
2022/03/06 09:21:46;;;;;;;10.23;6.17;;;;;;;0.29;86.32;96844.41;4990529;28;20506;-73
2022/03/06 09:24:13;;;;;;;8.47;6.43;;;;;;;0.45;81.57;96858.31;5007221;28;20548;-73
2022/03/06 09:26:40;;;;;;;7.40;5.43;;;;;;;0.78;82.24;96852.81;4992243;28;20417;-73
2022/03/06 09:29:07;;;;;;;8.40;6.90;;;;;;;0.76;79.43;96851.50;5007285;28;20440;-73
2022/03/06 09:31:33;;;;;;;7.70;6.47;;;;;;;0.70;76.31;96863.72;5007306;28;20961;-73
2022/03/06 09:34:00;;;;;;;7.13;6.47;;;;;;;0.74;77.54;96862.16;4987741;28;20481;-73
2022/03/06 09:36:46;;;;;;;8.53;6.03;;;;;;;0.76;76.62;96867.13;4986721;28;20868;-73
2022/03/06 09:39:14;;;;;;;5.33;4.83;;;;;;;0.55;73.38;96840.97;4985404;28;20475;-73
2022/03/06 09:41:41;;;;;;;6.23;5.30;;;;;;;0.73;73.31;96876.22;4974854;28;20437;-73
2022/03/06 09:44:09;;;;;;;5.37;4.87;;;;;;;0.60;72.47;96868.84;5007579;28;20512;-73
2022/03/06 09:46:38;;;;;;;7.17;6.00;;;;;;;0.68;71.11;96872.81;4990945;28;20445;-73
2022/03/06 09:49:06;;;;;;;6.20;5.00;;;;;;;0.69;71.03;96871.78;5007172;28;20453;-73
2022/03/06 09:51:35;;;;;;;6.40;5.60;;;;;;;0.57;69.07;96871.94;5006985;28;20473;-73
2022/03/06 09:54:02;;;;;;;6.07;5.47;;;;;;;0.20;68.90;96827.69;5006924;28;20492;-73
2022/03/06 09:56:28;;;;;;;5.17;4.53;;;;;;;0.07;67.25;96799.50;5006922;28;20468;-73
2022/03/06 09:58:55;;;;;;;5.23;4.73;;;;;;;0.43;66.23;96844.78;4990749;28;20444;-73
2022/03/06 10:01:22;;;;;;;5.70;5.23;;;;;;;0.56;64.72;96872.97;5007144;28;20870;-73
2022/03/06 10:03:48;;;;;;;13.07;4.93;;;;;;;0.34;64.36;96860.03;4990554;28;21009;-73
2022/03/06 10:06:15;;;;;;;5.30;4.90;;;;;;;0.42;65.83;96869.22;4990871;28;20445;-72
2022/03/06 10:08:42;;;;;;;6.80;5.37;;;;;;;0.37;66.48;96869.94;5006911;28;20472;-72
2022/03/06 10:11:11;;;;;;;6.20;5.37;;;;;;;0.13;67.40;96850.47;4990730;28;20444;-72
2022/03/06 10:13:40;;;;;;;6.40;5.80;;;;;;;0.21;67.40;96850.03;5006844;28;20928;-73
2022/03/06 10:16:20;;;;;;;6.93;6.23;;;;;;;0.44;67.63;96867.16;4974711;28;20465;-73
2022/03/06 10:18:55;;;;;;;9.37;5.80;;;;;;;0.38;66.99;96848.09;4992121;28;20428;-73
2022/03/06 10:21:27;;;;;;;7.23;6.57;;;;;;;0.34;67.24;96878.25;5006980;28;20932;-73
2022/03/06 10:23:59;;;;;;;5.93;5.43;;;;;;;0.37;66.51;96880.34;4992189;28;20453;-73
2022/03/06 10:26:34;;;;;;;5.70;5.23;;;;;;;0.32;66.73;96851.72;5007971;28;20437;-73
2022/03/06 10:29:12;;;;;;;6.50;5.97;;;;;;;0.59;66.94;96878.47;4991673;28;20473;-74
2022/03/06 10:31:56;;;;;;;6.03;5.17;;;;;;;0.62;66.16;96876.38;5009214;28;20495;-73
2022/03/06 10:34:40;;;;;;;6.23;5.53;;;;;;;0.58;66.45;96874.28;5010842;28;20457;-73
2022/03/06 10:37:12;;;;;;;6.13;5.50;;;;;;;0.64;65.44;96869.91;4994664;28;20473;-73
2022/03/06 10:39:48;;;;;;;7.00;6.20;;;;;;;0.68;66.06;96870.19;4994652;28;20480;-73
2022/03/06 10:42:22;;;;;;;7.23;6.30;;;;;;;0.78;66.46;96876.25;5010692;28;20481;-73
2022/03/06 10:44:48;;;;;;;6.07;5.47;;;;;;;0.43;64.86;96824.75;5010356;28;20468;-72
2022/03/06 10:47:18;;;;;;;6.80;6.23;;;;;;;0.65;64.38;96858.44;4994347;28;20468;-73
2022/03/06 10:50:05;;;;;;;8.00;6.07;;;;;;;-0.04;65.05;96757.81;5010483;28;20975;-73
2022/03/06 10:52:42;;;;;;;6.07;5.53;;;;;;;0.50;63.89;96869.53;4995789;28;20484;-73
2022/03/06 10:55:09;;;;;;;7.53;6.07;;;;;;;0.36;64.41;96847.56;4994503;28;20495;-73
2022/03/06 10:57:36;;;;;;;5.97;5.40;;;;;;;0.46;64.54;96850.25;4994102;28;20559;-73
2022/03/06 11:00:05;;;;;;;5.97;5.47;;;;;;;0.50;64.26;96860.94;4995446;28;20494;-73
2022/03/06 11:02:35;;;;;;;5.93;5.33;;;;;;;0.63;63.98;96855.31;5010273;28;20476;-73
2022/03/06 11:05:02;;;;;;;7.20;6.13;;;;;;;0.52;63.85;96841.44;4994486;28;20457;-74
2022/03/06 11:07:29;;;;;;;6.63;6.00;;;;;;;0.73;63.12;96855.41;5010591;28;20440;-73
2022/03/06 11:09:57;;;;;;;9.50;5.80;;;;;;;0.86;62.10;96857.56;5010623;28;20445;-73
2022/03/06 11:12:24;;;;;;;7.37;6.67;;;;;;;0.77;62.10;96827.84;5011944;28;20441;-73
2022/03/06 11:14:51;;;;;;;7.03;6.27;;;;;;;1.02;63.53;96834.22;5012296;28;20511;-73
2022/03/06 11:17:18;;;;;;;8.20;6.40;;;;;;;0.82;62.64;96833.09;4995841;28;20518;-73
2022/03/06 11:19:45;;;;;;;7.77;6.73;;;;;;;0.94;63.20;96853.72;5010122;28;20455;-73
2022/03/06 11:22:35;;;;;;;6.83;6.30;;;;;;;0.94;63.15;96853.72;4993877;28;20540;-73